sensor_id;sensor_type;location;lat;lon;timestamp;pressure;altitude;pressure_sealevel;temperature;humidity
10127;BME280;13080;42.608;23.362;2024-03-23T00:51:41;151564.91;;;1.82;73.63
10127;BME280;13080;42.608;23.362;2024-03-23T00:54:08;151550.69;;;1.76;73.73
10127;BME280;13080;42.608;23.362;2024-03-23T00:56:34;151541.69;;;1.73;73.95
10127;BME280;13080;42.608;23.362;2024-03-23T00:59:00;151544.25;;;1.74;73.72
10127;BME280;13080;42.608;23.362;2024-03-23T01:01:26;151533.94;;;1.70;73.70
10127;BME280;13080;42.608;23.362;2024-03-23T01:03:53;151524.94;;;1.66;73.51
10127;BME280;13080;42.608;23.362;2024-03-23T01:06:19;151530.03;;;1.68;72.65
10127;BME280;13080;42.608;23.362;2024-03-23T01:08:47;151523.59;;;1.65;73.13
10127;BME280;13080;42.608;23.362;2024-03-23T01:11:13;151506.84;;;1.59;72.61
10127;BME280;13080;42.608;23.362;2024-03-23T01:13:40;151506.84;;;1.59;72.38
10127;BME280;13080;42.608;23.362;2024-03-23T01:16:06;151509.44;;;1.60;72.05
10127;BME280;13080;42.608;23.362;2024-03-23T01:18:33;151499.13;;;1.56;72.14
10127;BME280;13080;42.608;23.362;2024-03-23T01:20:59;151492.69;;;1.53;71.70
10127;BME280;13080;42.608;23.362;2024-03-23T01:23:26;151492.69;;;1.53;71.01
10127;BME280;13080;42.608;23.362;2024-03-23T01:25:53;151486.25;;;1.51;70.64
10127;BME280;13080;42.608;23.362;2024-03-23T01:28:20;151491.41;;;1.53;71.10
10127;BME280;13080;42.608;23.362;2024-03-23T01:30:46;151508.16;;;1.59;70.83
10127;BME280;13080;42.608;23.362;2024-03-23T01:33:13;151500.41;;;1.56;70.73
10127;BME280;13080;42.608;23.362;2024-03-23T01:35:39;151495.25;;;1.54;70.48
10127;BME280;13080;42.608;23.362;2024-03-23T01:38:06;151493.97;;;1.54;70.75
10127;BME280;13080;42.608;23.362;2024-03-23T01:40:32;151486.25;;;1.51;71.18
10127;BME280;13080;42.608;23.362;2024-03-23T01:43:03;151479.81;;;1.48;71.08
10127;BME280;13080;42.608;23.362;2024-03-23T01:45:30;151483.63;;;1.50;71.54
10127;BME280;13080;42.608;23.362;2024-03-23T01:47:57;151461.72;;;1.41;71.32
10127;BME280;13080;42.608;23.362;2024-03-23T01:50:23;151461.72;;;1.41;71.48
10127;BME280;13080;42.608;23.362;2024-03-23T01:52:50;151457.88;;;1.39;71.74
10127;BME280;13080;42.608;23.362;2024-03-23T01:55:16;151461.72;;;1.41;71.97
10127;BME280;13080;42.608;23.362;2024-03-23T01:57:43;151503.00;;;1.57;71.61
10127;BME280;13080;42.608;23.362;2024-03-23T02:00:11;151497.84;;;1.55;71.64
10127;BME280;13080;42.608;23.362;2024-03-23T02:02:42;151479.81;;;1.48;71.71
10127;BME280;13080;42.608;23.362;2024-03-23T02:05:08;151451.44;;;1.37;72.73
10127;BME280;13080;42.608;23.362;2024-03-23T02:07:35;151419.19;;;1.24;72.59
10127;BME280;13080;42.608;23.362;2024-03-23T02:10:01;151411.44;;;1.21;73.27
10127;BME280;13080;42.608;23.362;2024-03-23T02:12:28;151398.56;;;1.16;72.56
10127;BME280;13080;42.608;23.362;2024-03-23T02:14:54;151393.38;;;1.14;72.72
10127;BME280;13080;42.608;23.362;2024-03-23T02:17:22;151388.22;;;1.12;71.94
10127;BME280;13080;42.608;23.362;2024-03-23T02:19:48;151393.38;;;1.14;71.20
10127;BME280;13080;42.608;23.362;2024-03-23T02:22:15;151394.66;;;1.14;72.10
10127;BME280;13080;42.608;23.362;2024-03-23T02:24:43;151399.81;;;1.16;73.50
10127;BME280;13080;42.608;23.362;2024-03-23T02:27:10;151396.00;;;1.15;73.46
10127;BME280;13080;42.608;23.362;2024-03-23T02:29:36;151402.44;;;1.17;73.98
10127;BME280;13080;42.608;23.362;2024-03-23T02:32:03;151392.13;;;1.13;74.13
10127;BME280;13080;42.608;23.362;2024-03-23T02:34:28;151393.38;;;1.14;75.61
10127;BME280;13080;42.608;23.362;2024-03-23T02:36:56;151390.84;;;1.13;76.54
10127;BME280;13080;42.608;23.362;2024-03-23T02:39:21;151389.56;;;1.12;77.03
10127;BME280;13080;42.608;23.362;2024-03-23T02:41:49;151405.00;;;1.18;77.88
10127;BME280;13080;42.608;23.362;2024-03-23T02:44:15;151393.38;;;1.14;77.54
10127;BME280;13080;42.608;23.362;2024-03-23T02:46:42;151390.84;;;1.13;78.35
10127;BME280;13080;42.608;23.362;2024-03-23T02:49:09;151394.66;;;1.14;77.93
10127;BME280;13080;42.608;23.362;2024-03-23T02:51:35;151388.22;;;1.12;77.05
10127;BME280;13080;42.608;23.362;2024-03-23T02:54:02;151379.25;;;1.08;77.95
10127;BME280;13080;42.608;23.362;2024-03-23T02:56:28;151385.69;;;1.11;77.86
10127;BME280;13080;42.608;23.362;2024-03-23T02:58:56;151381.78;;;1.09;78.06
10127;BME280;13080;42.608;23.362;2024-03-23T03:01:22;151376.63;;;1.07;78.94
10127;BME280;13080;42.608;23.362;2024-03-23T03:03:49;151377.91;;;1.08;78.04
10127;BME280;13080;42.608;23.362;2024-03-23T03:06:23;151370.19;;;1.04;77.59
10127;BME280;13080;42.608;23.362;2024-03-23T03:08:50;151357.31;;;0.99;78.60
10127;BME280;13080;42.608;23.362;2024-03-23T03:11:15;151349.56;;;0.96;78.80
10127;BME280;13080;42.608;23.362;2024-03-23T03:13:42;151371.47;;;1.05;79.93
10127;BME280;13080;42.608;23.362;2024-03-23T03:16:10;151339.28;;;0.92;80.01
10127;BME280;13080;42.608;23.362;2024-03-23T03:18:37;151354.72;;;0.98;78.40
10127;BME280;13080;42.608;23.362;2024-03-23T03:21:03;151352.16;;;0.97;79.48
10127;BME280;13080;42.608;23.362;2024-03-23T03:23:31;151322.53;;;0.86;79.89
10127;BME280;13080;42.608;23.362;2024-03-23T03:25:57;151300.63;;;0.77;80.53
10127;BME280;13080;42.608;23.362;2024-03-23T03:28:24;151295.47;;;0.75;79.43
10127;BME280;13080;42.608;23.362;2024-03-23T03:30:51;151274.81;;;0.67;80.41
10127;BME280;13080;42.608;23.362;2024-03-23T03:33:19;151289.03;;;0.72;80.27
10127;BME280;13080;42.608;23.362;2024-03-23T03:35:45;151296.72;;;0.75;80.08
10127;BME280;13080;42.608;23.362;2024-03-23T03:38:12;151289.03;;;0.72;79.19
10127;BME280;13080;42.608;23.362;2024-03-23T03:40:38;151282.59;;;0.70;79.64
10127;BME280;13080;42.608;23.362;2024-03-23T03:43:05;151289.03;;;0.72;79.55
10127;BME280;13080;42.608;23.362;2024-03-23T03:45:31;151298.00;;;0.76;78.58
10127;BME280;13080;42.608;23.362;2024-03-23T03:47:58;151308.34;;;0.80;77.28
10127;BME280;13080;42.608;23.362;2024-03-23T03:50:26;151326.38;;;0.87;77.83
10127;BME280;13080;42.608;23.362;2024-03-23T03:52:53;151347.00;;;0.95;77.77
10127;BME280;13080;42.608;23.362;2024-03-23T03:55:18;151335.41;;;0.91;77.46
10127;BME280;13080;42.608;23.362;2024-03-23T03:57:45;151314.78;;;0.82;78.09
10127;BME280;13080;42.608;23.362;2024-03-23T04:00:12;151304.44;;;0.78;78.25
10127;BME280;13080;42.608;23.362;2024-03-23T04:02:39;151287.69;;;0.72;79.86
10127;BME280;13080;42.608;23.362;2024-03-23T04:05:06;151298.00;;;0.76;79.61
10127;BME280;13080;42.608;23.362;2024-03-23T04:07:35;151292.84;;;0.74;79.74
10127;BME280;13080;42.608;23.362;2024-03-23T04:10:01;151289.03;;;0.72;79.93
10127;BME280;13080;42.608;23.362;2024-03-23T04:12:32;151283.88;;;0.70;80.81
10127;BME280;13080;42.608;23.362;2024-03-23T04:14:59;151282.59;;;0.70;81.20
10127;BME280;13080;42.608;23.362;2024-03-23T04:17:26;151280.00;;;0.69;80.89
10127;BME280;13080;42.608;23.362;2024-03-23T04:19:57;151289.03;;;0.72;81.34
10127;BME280;13080;42.608;23.362;2024-03-23T04:22:23;151291.59;;;0.73;81.11
10127;BME280;13080;42.608;23.362;2024-03-23T04:24:53;151280.00;;;0.69;81.70
10127;BME280;13080;42.608;23.362;2024-03-23T04:27:18;151269.66;;;0.65;81.51
10127;BME280;13080;42.608;23.362;2024-03-23T04:29:47;151268.41;;;0.64;81.67
10127;BME280;13080;42.608;23.362;2024-03-23T04:32:13;151268.41;;;0.64;82.38
10127;BME280;13080;42.608;23.362;2024-03-23T04:34:40;151267.13;;;0.64;81.81
10127;BME280;13080;42.608;23.362;2024-03-23T04:37:06;151281.25;;;0.69;81.61
10127;BME280;13080;42.608;23.362;2024-03-23T04:39:34;151305.78;;;0.79;80.76
10127;BME280;13080;42.608;23.362;2024-03-23T04:42:02;151296.72;;;0.75;79.74
10127;BME280;13080;42.608;23.362;2024-03-23T04:44:29;151285.13;;;0.71;80.19
10127;BME280;13080;42.608;23.362;2024-03-23T04:46:56;151281.25;;;0.69;82.11
10127;BME280;13080;42.608;23.362;2024-03-23T04:49:23;151282.59;;;0.70;82.63
10127;BME280;13080;42.608;23.362;2024-03-23T04:51:49;151274.81;;;0.67;82.66
10127;BME280;13080;42.608;23.362;2024-03-23T04:54:16;151272.28;;;0.66;81.70
10127;BME280;13080;42.608;23.362;2024-03-23T04:56:42;151292.84;;;0.74;82.05
10127;BME280;13080;42.608;23.362;2024-03-23T04:59:10;151309.63;;;0.80;81.46
10127;BME280;13080;42.608;23.362;2024-03-23T05:01:36;151326.38;;;0.87;80.89
10127;BME280;13080;42.608;23.362;2024-03-23T05:04:07;151354.72;;;0.98;80.41
10127;BME280;13080;42.608;23.362;2024-03-23T05:06:33;151385.69;;;1.11;79.20
10127;BME280;13080;42.608;23.362;2024-03-23T05:09:00;151417.91;;;1.23;78.76
10127;BME280;13080;42.608;23.362;2024-03-23T05:11:28;151442.41;;;1.33;78.84
10127;BME280;13080;42.608;23.362;2024-03-23T05:13:55;151473.31;;;1.45;78.49
10127;BME280;13080;42.608;23.362;2024-03-23T05:16:22;151504.28;;;1.58;77.94
10127;BME280;13080;42.608;23.362;2024-03-23T05:18:49;151533.94;;;1.70;77.25
10127;BME280;13080;42.608;23.362;2024-03-23T05:21:15;151624.22;;;2.05;75.69
10127;BME280;13080;42.608;23.362;2024-03-23T05:23:41;151644.88;;;2.14;75.89
10127;BME280;13080;42.608;23.362;2024-03-23T05:26:08;151648.72;;;2.15;75.11
10127;BME280;13080;42.608;23.362;2024-03-23T05:28:36;151632.00;;;2.08;75.50
10127;BME280;13080;42.608;23.362;2024-03-23T05:31:02;151639.72;;;2.12;75.60
10127;BME280;13080;42.608;23.362;2024-03-23T05:33:30;151706.81;;;2.38;74.94
10127;BME280;13080;42.608;23.362;2024-03-23T05:35:57;151682.25;;;2.28;75.71
10127;BME280;13080;42.608;23.362;2024-03-23T05:38:24;151739.03;;;2.51;73.70
10127;BME280;13080;42.608;23.362;2024-03-23T05:40:53;151728.75;;;2.47;74.15
10127;BME280;13080;42.608;23.362;2024-03-23T05:43:21;151800.97;;;2.76;75.45
10127;BME280;13080;42.608;23.362;2024-03-23T05:45:53;151829.38;;;2.87;73.89
10127;BME280;13080;42.608;23.362;2024-03-23T05:48:20;151846.16;;;2.94;73.95
10127;BME280;13080;42.608;23.362;2024-03-23T05:50:47;151878.44;;;3.06;72.90
10127;BME280;13080;42.608;23.362;2024-03-23T05:53:14;151918.47;;;3.22;72.21
10127;BME280;13080;42.608;23.362;2024-03-23T05:55:40;151975.28;;;3.45;72.35
10127;BME280;13080;42.608;23.362;2024-03-23T05:58:07;151944.31;;;3.32;73.04
10127;BME280;13080;42.608;23.362;2024-03-23T06:00:33;151939.16;;;3.30;73.02
10127;BME280;13080;42.608;23.362;2024-03-23T06:03:00;151943.03;;;3.32;72.18
10127;BME280;13080;42.608;23.362;2024-03-23T06:05:26;151963.69;;;3.40;70.92
10127;BME280;13080;42.608;23.362;2024-03-23T06:07:54;151977.91;;;3.46;69.67
10127;BME280;13080;42.608;23.362;2024-03-23T06:10:20;152028.28;;;3.66;69.21
10127;BME280;13080;42.608;23.362;2024-03-23T06:12:47;152039.91;;;3.70;69.91
10127;BME280;13080;42.608;23.362;2024-03-23T06:15:14;152045.06;;;3.72;72.45
10127;BME280;13080;42.608;23.362;2024-03-23T06:17:41;152036.00;;;3.69;72.05
10127;BME280;13080;42.608;23.362;2024-03-23T06:20:08;152054.09;;;3.76;70.75
10127;BME280;13080;42.608;23.362;2024-03-23T06:22:35;152081.22;;;3.87;68.83
10127;BME280;13080;42.608;23.362;2024-03-23T06:25:03;152104.47;;;3.96;66.79
10127;BME280;13080;42.608;23.362;2024-03-23T06:27:30;152167.78;;;4.21;66.55
10127;BME280;13080;42.608;23.362;2024-03-23T06:29:57;152191.03;;;4.30;66.31
10127;BME280;13080;42.608;23.362;2024-03-23T06:32:24;152236.28;;;4.48;64.82
10127;BME280;13080;42.608;23.362;2024-03-23T06:34:50;152255.69;;;4.56;64.88
10127;BME280;13080;42.608;23.362;2024-03-23T06:37:17;152229.81;;;4.46;65.37
10127;BME280;13080;42.608;23.362;2024-03-23T06:39:45;152254.41;;;4.55;66.08
10127;BME280;13080;42.608;23.362;2024-03-23T06:42:14;152246.63;;;4.52;66.52
10127;BME280;13080;42.608;23.362;2024-03-23T06:44:39;152263.44;;;4.59;67.48
10127;BME280;13080;42.608;23.362;2024-03-23T06:47:06;152295.78;;;4.72;66.05
10127;BME280;13080;42.608;23.362;2024-03-23T06:49:32;152359.09;;;4.97;63.58
10127;BME280;13080;42.608;23.362;2024-03-23T06:51:59;152353.94;;;4.95;64.33
10127;BME280;13080;42.608;23.362;2024-03-23T06:54:26;152347.47;;;4.92;62.65
10127;BME280;13080;42.608;23.362;2024-03-23T06:56:53;152328.09;;;4.85;62.11
10127;BME280;13080;42.608;23.362;2024-03-23T06:59:20;152324.22;;;4.83;62.61
10127;BME280;13080;42.608;23.362;2024-03-23T07:01:47;152350.09;;;4.93;63.14
10127;BME280;13080;42.608;23.362;2024-03-23T07:04:13;152412.16;;;5.18;61.24
10127;BME280;13080;42.608;23.362;2024-03-23T07:06:42;152428.97;;;5.25;62.05
10127;BME280;13080;42.608;23.362;2024-03-23T07:09:08;152434.09;;;5.27;62.35
10127;BME280;13080;42.608;23.362;2024-03-23T07:11:35;152444.47;;;5.31;62.75
10127;BME280;13080;42.608;23.362;2024-03-23T07:14:02;152505.28;;;5.55;63.08
10127;BME280;13080;42.608;23.362;2024-03-23T07:16:30;152483.28;;;5.46;62.96
10127;BME280;13080;42.608;23.362;2024-03-23T07:18:57;152523.38;;;5.62;62.79
10127;BME280;13080;42.608;23.362;2024-03-23T07:21:24;152519.47;;;5.60;63.73
10127;BME280;13080;42.608;23.362;2024-03-23T07:23:49;152588.09;;;5.88;61.60
10127;BME280;13080;42.608;23.362;2024-03-23T07:26:16;152603.59;;;5.94;61.06
10127;BME280;13080;42.608;23.362;2024-03-23T07:28:43;152595.84;;;5.91;60.81
10127;BME280;13080;42.608;23.362;2024-03-23T07:31:12;152636.00;;;6.07;60.13
10127;BME280;13080;42.608;23.362;2024-03-23T07:33:44;152625.66;;;6.02;61.42
10127;BME280;13080;42.608;23.362;2024-03-23T07:36:11;152660.59;;;6.16;59.72
10127;BME280;13080;42.608;23.362;2024-03-23T07:38:40;152669.66;;;6.20;59.44
10127;BME280;13080;42.608;23.362;2024-03-23T07:41:08;152685.22;;;6.26;61.07
10127;BME280;13080;42.608;23.362;2024-03-23T07:43:34;152755.09;;;6.54;60.03
10127;BME280;13080;42.608;23.362;2024-03-23T07:46:01;152762.84;;;6.57;58.70
10127;BME280;13080;42.608;23.362;2024-03-23T07:48:29;152756.38;;;6.54;59.11
10127;BME280;13080;42.608;23.362;2024-03-23T07:50:59;152744.72;;;6.50;60.94
10127;BME280;13080;42.608;23.362;2024-03-23T07:53:24;152796.53;;;6.70;58.95
10127;BME280;13080;42.608;23.362;2024-03-23T07:55:55;152805.59;;;6.74;61.33
10127;BME280;13080;42.608;23.362;2024-03-23T07:58:21;152836.66;;;6.86;58.97
10127;BME280;13080;42.608;23.362;2024-03-23T08:00:48;152860.00;;;6.95;59.21
10127;BME280;13080;42.608;23.362;2024-03-23T08:03:14;152933.84;;;7.24;58.82
10127;BME280;13080;42.608;23.362;2024-03-23T08:05:41;152966.19;;;7.37;57.53
10127;BME280;13080;42.608;23.362;2024-03-23T08:08:08;152997.31;;;7.49;55.84
10127;BME280;13080;42.608;23.362;2024-03-23T08:10:36;152996.03;;;7.49;58.18
10127;BME280;13080;42.608;23.362;2024-03-23T08:13:02;153007.69;;;7.54;57.31
10127;BME280;13080;42.608;23.362;2024-03-23T08:15:30;152994.69;;;7.48;58.45
10127;BME280;13080;42.608;23.362;2024-03-23T08:17:58;153066.00;;;7.77;56.86
10127;BME280;13080;42.608;23.362;2024-03-23T08:20:25;153066.00;;;7.77;55.92
10127;BME280;13080;42.608;23.362;2024-03-23T08:22:51;153086.75;;;7.85;56.94
10127;BME280;13080;42.608;23.362;2024-03-23T08:25:19;153121.72;;;7.99;55.52
10127;BME280;13080;42.608;23.362;2024-03-23T08:27:45;153120.44;;;7.98;54.76
10127;BME280;13080;42.608;23.362;2024-03-23T08:30:13;153147.63;;;8.09;54.83
10127;BME280;13080;42.608;23.362;2024-03-23T08:32:41;153155.44;;;8.12;56.21
10127;BME280;13080;42.608;23.362;2024-03-23T08:35:08;153154.09;;;8.11;55.68
10127;BME280;13080;42.608;23.362;2024-03-23T08:37:35;153168.38;;;8.17;55.69
10127;BME280;13080;42.608;23.362;2024-03-23T08:40:01;153168.38;;;8.17;55.50
10127;BME280;13080;42.608;23.362;2024-03-23T08:42:30;153264.38;;;8.55;54.08
10127;BME280;13080;42.608;23.362;2024-03-23T08:44:57;153256.63;;;8.52;53.76
10127;BME280;13080;42.608;23.362;2024-03-23T08:47:23;153222.88;;;8.39;54.70
10127;BME280;13080;42.608;23.362;2024-03-23T08:49:51;153238.44;;;8.45;56.59
10127;BME280;13080;42.608;23.362;2024-03-23T08:52:17;153322.72;;;8.78;53.61
10127;BME280;13080;42.608;23.362;2024-03-23T08:54:44;153342.22;;;8.86;53.56
10127;BME280;13080;42.608;23.362;2024-03-23T08:57:09;153355.19;;;8.91;53.08
10127;BME280;13080;42.608;23.362;2024-03-23T08:59:39;153359.09;;;8.92;52.20
10127;BME280;13080;42.608;23.362;2024-03-23T09:02:05;153362.94;;;8.94;51.84
10127;BME280;13080;42.608;23.362;2024-03-23T09:04:32;153399.28;;;9.08;53.17
10127;BME280;13080;42.608;23.362;2024-03-23T09:06:57;153412.25;;;9.13;52.60
10127;BME280;13080;42.608;23.362;2024-03-23T09:09:25;153457.66;;;9.31;52.04
10127;BME280;13080;42.608;23.362;2024-03-23T09:11:51;153479.72;;;9.40;51.06
10127;BME280;13080;42.608;23.362;2024-03-23T09:14:18;153492.69;;;9.45;51.01
10127;BME280;13080;42.608;23.362;2024-03-23T09:16:46;153509.56;;;9.52;51.81
10127;BME280;13080;42.608;23.362;2024-03-23T09:19:16;153507.00;;;9.51;52.90
10127;BME280;13080;42.608;23.362;2024-03-23T09:21:42;153529.06;;;9.60;51.82
10127;BME280;13080;42.608;23.362;2024-03-23T09:24:09;153575.78;;;9.78;50.18
10127;BME280;13080;42.608;23.362;2024-03-23T09:26:35;153599.13;;;9.87;49.73
10127;BME280;13080;42.608;23.362;2024-03-23T09:29:02;153613.38;;;9.93;49.93
10127;BME280;13080;42.608;23.362;2024-03-23T09:31:29;153608.19;;;9.91;48.39
10127;BME280;13080;42.608;23.362;2024-03-23T09:33:58;153595.22;;;9.86;50.30
10127;BME280;13080;42.608;23.362;2024-03-23T09:36:24;153595.22;;;9.86;50.55
10127;BME280;13080;42.608;23.362;2024-03-23T09:38:51;153609.53;;;9.91;48.58
10127;BME280;13080;42.608;23.362;2024-03-23T09:41:17;153632.88;;;10.01;47.47
10127;BME280;13080;42.608;23.362;2024-03-23T09:43:44;153673.13;;;10.16;48.02
10127;BME280;13080;42.608;23.362;2024-03-23T09:46:10;153718.63;;;10.34;47.76
10127;BME280;13080;42.608;23.362;2024-03-23T09:48:37;153709.50;;;10.31;47.37
10127;BME280;13080;42.608;23.362;2024-03-23T09:51:05;153718.63;;;10.34;46.56
10127;BME280;13080;42.608;23.362;2024-03-23T09:53:33;153738.06;;;10.42;45.71
10127;BME280;13080;42.608;23.362;2024-03-23T09:55:59;153725.09;;;10.37;46.53
10127;BME280;13080;42.608;23.362;2024-03-23T09:58:26;153717.34;;;10.34;48.51
10127;BME280;13080;42.608;23.362;2024-03-23T10:00:52;153768.00;;;10.54;47.60
10127;BME280;13080;42.608;23.362;2024-03-23T10:03:19;153770.56;;;10.55;46.64
10127;BME280;13080;42.608;23.362;2024-03-23T10:05:46;153760.16;;;10.51;47.01
10127;BME280;13080;42.608;23.362;2024-03-23T10:08:18;153784.88;;;10.60;47.46
10127;BME280;13080;42.608;23.362;2024-03-23T10:10:46;153790.03;;;10.63;47.81
10127;BME280;13080;42.608;23.362;2024-03-23T10:13:24;153867.97;;;10.93;45.11
10127;BME280;13080;42.608;23.362;2024-03-23T10:15:58;153821.22;;;10.75;46.39
10127;BME280;13080;42.608;23.362;2024-03-23T10:18:24;153852.38;;;10.87;45.66
10127;BME280;13080;42.608;23.362;2024-03-23T10:21:06;153879.66;;;10.98;45.91
10127;BME280;13080;42.608;23.362;2024-03-23T10:23:36;153890.06;;;11.02;46.72
10127;BME280;13080;42.608;23.362;2024-03-23T10:26:13;153923.84;;;11.15;46.15
10127;BME280;13080;42.608;23.362;2024-03-23T10:28:51;153940.75;;;11.22;46.90
10127;BME280;13080;42.608;23.362;2024-03-23T10:31:18;153943.31;;;11.23;47.25
10127;BME280;13080;42.608;23.362;2024-03-23T10:33:45;153996.63;;;11.44;47.10
10127;BME280;13080;42.608;23.362;2024-03-23T10:36:12;153968.03;;;11.33;45.37
10127;BME280;13080;42.608;23.362;2024-03-23T10:38:40;153975.81;;;11.36;45.62
10127;BME280;13080;42.608;23.362;2024-03-23T10:41:08;153974.53;;;11.35;45.94
10127;BME280;13080;42.608;23.362;2024-03-23T10:43:36;154010.91;;;11.50;44.25
10127;BME280;13080;42.608;23.362;2024-03-23T10:46:03;154017.41;;;11.52;45.30
10127;BME280;13080;42.608;23.362;2024-03-23T10:48:29;154051.19;;;11.65;43.75
10127;BME280;13080;42.608;23.362;2024-03-23T10:50:56;154051.19;;;11.65;44.64
10127;BME280;13080;42.608;23.362;2024-03-23T10:53:25;154079.78;;;11.77;44.75
10127;BME280;13080;42.608;23.362;2024-03-23T10:55:55;154121.47;;;11.93;43.65
10127;BME280;13080;42.608;23.362;2024-03-23T10:58:24;154161.78;;;12.09;43.86
10127;BME280;13080;42.608;23.362;2024-03-23T11:00:53;154174.75;;;12.14;41.91
10127;BME280;13080;42.608;23.362;2024-03-23T11:03:33;154126.69;;;11.95;42.00
10127;BME280;13080;42.608;23.362;2024-03-23T11:06:02;154113.63;;;11.90;42.86
10127;BME280;13080;42.608;23.362;2024-03-23T11:08:33;154143.59;;;12.02;42.16
10127;BME280;13080;42.608;23.362;2024-03-23T11:11:19;154170.84;;;12.13;41.62
10127;BME280;13080;42.608;23.362;2024-03-23T11:13:47;154139.66;;;12.00;42.67
10127;BME280;13080;42.608;23.362;2024-03-23T11:16:15;154134.47;;;11.98;44.54
10127;BME280;13080;42.608;23.362;2024-03-23T11:18:42;154213.78;;;12.30;42.23
10127;BME280;13080;42.608;23.362;2024-03-23T11:21:09;154280.13;;;12.56;40.26
10127;BME280;13080;42.608;23.362;2024-03-23T11:23:35;154242.38;;;12.41;42.28
10127;BME280;13080;42.608;23.362;2024-03-23T11:26:02;154284.00;;;12.57;41.20
10127;BME280;13080;42.608;23.362;2024-03-23T11:28:33;154280.13;;;12.56;42.05
10127;BME280;13080;42.608;23.362;2024-03-23T11:31:00;154315.25;;;12.69;40.07
10127;BME280;13080;42.608;23.362;2024-03-23T11:33:26;154304.81;;;12.65;40.33
10127;BME280;13080;42.608;23.362;2024-03-23T11:35:54;154286.63;;;12.58;40.12
10127;BME280;13080;42.608;23.362;2024-03-23T11:38:20;154268.41;;;12.51;41.50
10127;BME280;13080;42.608;23.362;2024-03-23T11:40:47;154281.41;;;12.56;41.73
10127;BME280;13080;42.608;23.362;2024-03-23T11:43:15;154304.81;;;12.65;41.01
10127;BME280;13080;42.608;23.362;2024-03-23T11:45:45;154332.16;;;12.76;40.78
10127;BME280;13080;42.608;23.362;2024-03-23T11:48:12;154325.66;;;12.74;41.38
10127;BME280;13080;42.608;23.362;2024-03-23T11:50:40;154356.84;;;12.86;42.57
10127;BME280;13080;42.608;23.362;2024-03-23T11:53:08;154373.75;;;12.93;40.26
10127;BME280;13080;42.608;23.362;2024-03-23T11:55:46;154381.56;;;12.96;41.93
10127;BME280;13080;42.608;23.362;2024-03-23T11:58:13;154445.34;;;13.21;40.13
10127;BME280;13080;42.608;23.362;2024-03-23T12:00:40;154434.94;;;13.17;39.26
10127;BME280;13080;42.608;23.362;2024-03-23T12:03:08;154401.09;;;13.03;39.31
10127;BME280;13080;42.608;23.362;2024-03-23T12:05:36;154402.38;;;13.04;39.75
10127;BME280;13080;42.608;23.362;2024-03-23T12:08:16;154394.59;;;13.01;40.68
10127;BME280;13080;42.608;23.362;2024-03-23T12:10:44;154389.38;;;12.99;40.69
10127;BME280;13080;42.608;23.362;2024-03-23T12:13:10;154480.53;;;13.35;40.41
10127;BME280;13080;42.608;23.362;2024-03-23T12:15:37;154496.16;;;13.41;38.32
10127;BME280;13080;42.608;23.362;2024-03-23T12:18:08;154460.94;;;13.27;39.60
10127;BME280;13080;42.608;23.362;2024-03-23T12:20:35;154526.09;;;13.52;37.93
10127;BME280;13080;42.608;23.362;2024-03-23T12:23:08;154515.66;;;13.48;37.62
10127;BME280;13080;42.608;23.362;2024-03-23T12:25:37;154492.25;;;13.39;38.99
10127;BME280;13080;42.608;23.362;2024-03-23T12:28:03;154569.00;;;13.69;38.21
10127;BME280;13080;42.608;23.362;2024-03-23T12:30:32;154541.72;;;13.59;38.82
10127;BME280;13080;42.608;23.362;2024-03-23T12:32:58;154588.56;;;13.77;37.34
10127;BME280;13080;42.608;23.362;2024-03-23T12:35:26;154548.22;;;13.61;37.93
10127;BME280;13080;42.608;23.362;2024-03-23T12:37:52;154503.94;;;13.44;38.33
10127;BME280;13080;42.608;23.362;2024-03-23T12:40:19;154502.66;;;13.43;38.08
10127;BME280;13080;42.608;23.362;2024-03-23T12:42:45;154503.94;;;13.44;39.37
10127;BME280;13080;42.608;23.362;2024-03-23T12:45:12;154500.03;;;13.42;39.09
10127;BME280;13080;42.608;23.362;2024-03-23T12:47:37;154520.88;;;13.50;39.29
10127;BME280;13080;42.608;23.362;2024-03-23T12:50:05;154524.78;;;13.52;38.30
10127;BME280;13080;42.608;23.362;2024-03-23T12:52:32;154503.94;;;13.44;38.94
10127;BME280;13080;42.608;23.362;2024-03-23T12:54:59;154518.25;;;13.49;37.81
10127;BME280;13080;42.608;23.362;2024-03-23T12:57:25;154500.03;;;13.42;37.98
10127;BME280;13080;42.608;23.362;2024-03-23T12:59:53;154506.53;;;13.45;37.90
10127;BME280;13080;42.608;23.362;2024-03-23T13:02:19;154506.53;;;13.45;37.58
10127;BME280;13080;42.608;23.362;2024-03-23T13:04:49;154558.59;;;13.65;37.10
10127;BME280;13080;42.608;23.362;2024-03-23T13:07:15;154610.69;;;13.86;36.18
10127;BME280;13080;42.608;23.362;2024-03-23T13:09:43;154623.72;;;13.91;35.96
10127;BME280;13080;42.608;23.362;2024-03-23T13:12:09;154664.06;;;14.07;35.51
10127;BME280;13080;42.608;23.362;2024-03-23T13:14:37;154614.56;;;13.87;36.41
10127;BME280;13080;42.608;23.362;2024-03-23T13:17:04;154660.16;;;14.05;36.05
10127;BME280;13080;42.608;23.362;2024-03-23T13:19:31;154648.44;;;14.01;35.31
10127;BME280;13080;42.608;23.362;2024-03-23T13:21:59;154649.72;;;14.01;35.70
10127;BME280;13080;42.608;23.362;2024-03-23T13:24:26;154673.19;;;14.10;35.88
10127;BME280;13080;42.608;23.362;2024-03-23T13:26:55;154636.72;;;13.96;36.03
10127;BME280;13080;42.608;23.362;2024-03-23T13:29:21;154618.50;;;13.89;34.43
10127;BME280;13080;42.608;23.362;2024-03-23T13:31:49;154613.28;;;13.87;34.83
10127;BME280;13080;42.608;23.362;2024-03-23T13:34:16;154648.44;;;14.01;34.05
10127;BME280;13080;42.608;23.362;2024-03-23T13:36:43;154730.50;;;14.33;33.18
10127;BME280;13080;42.608;23.362;2024-03-23T13:39:09;154705.72;;;14.23;33.39